createdAt,value
2023-01-11T00:01:38.909Z,12.73
2023-01-11T00:04:07.596Z,16.57
2023-01-11T00:06:36.289Z,16.50
2023-01-11T00:09:06.382Z,11.87
2023-01-11T00:11:35.054Z,19.10
2023-01-11T00:14:03.730Z,18.60
2023-01-11T00:16:32.331Z,10.27
2023-01-11T00:19:00.899Z,13.93
2023-01-11T00:21:29.426Z,13.10
2023-01-11T00:23:58.129Z,18.30
2023-01-11T00:26:28.146Z,11.03
2023-01-11T00:28:57.047Z,12.43
2023-01-11T00:31:25.858Z,16.57
2023-01-11T00:33:54.998Z,11.20
2023-01-11T00:36:23.868Z,10.23
2023-01-11T00:38:54.091Z,12.83
2023-01-11T00:41:41.956Z,17.33
2023-01-11T00:44:30.885Z,13.93
2023-01-11T00:47:22.915Z,9.90
2023-01-11T00:49:51.540Z,17.53
2023-01-11T00:52:20.187Z,12.80
2023-01-11T00:54:48.814Z,15.63
2023-01-11T00:57:17.476Z,9.77
2023-01-11T00:59:47.647Z,14.03
2023-01-11T01:02:16.422Z,13.93
2023-01-11T01:04:44.987Z,11.20
2023-01-11T01:07:13.709Z,12.50
2023-01-11T01:09:42.209Z,24.30
2023-01-11T01:12:10.822Z,11.93
2023-01-11T01:14:38.936Z,10.60
2023-01-11T01:17:10.309Z,13.33
2023-01-11T01:19:40.450Z,16.17
2023-01-11T01:22:09.175Z,10.83
2023-01-11T01:24:38.090Z,10.23
2023-01-11T01:27:06.756Z,11.30
2023-01-11T01:29:35.583Z,10.93
2023-01-11T01:32:04.386Z,8.07
2023-01-11T01:34:37.402Z,11.47
2023-01-11T01:37:06.599Z,11.67
2023-01-11T01:39:35.898Z,16.37
2023-01-11T01:42:06.014Z,11.60
2023-01-11T01:45:02.501Z,13.00
2023-01-11T01:47:43.638Z,9.97
2023-01-11T01:50:21.915Z,13.13
2023-01-11T01:52:56.193Z,10.50
2023-01-11T01:55:31.344Z,13.03
2023-01-11T01:58:03.687Z,20.07
2023-01-11T02:00:33.183Z,8.43
2023-01-11T02:03:03.513Z,13.70
2023-01-11T02:05:33.540Z,9.23
2023-01-11T02:08:08.485Z,8.07
2023-01-11T02:10:39.363Z,16.13
2023-01-11T02:13:13.244Z,14.07
2023-01-11T02:15:42.164Z,10.10
2023-01-11T02:18:14.472Z,14.23
2023-01-11T02:21:16.669Z,10.80
2023-01-11T02:24:31.960Z,9.23
2023-01-11T02:27:56.285Z,9.33
2023-01-11T02:30:34.305Z,12.73
2023-01-11T02:33:20.209Z,10.73
2023-01-11T02:36:08.295Z,12.83
2023-01-11T02:38:45.982Z,12.20
2023-01-11T02:41:25.322Z,13.20
2023-01-11T02:44:24.305Z,10.90
2023-01-11T02:47:03.248Z,15.77
2023-01-11T02:49:40.494Z,15.80
2023-01-11T02:52:15.147Z,10.60
2023-01-11T02:54:53.971Z,12.67
2023-01-11T02:57:28.267Z,13.23
2023-01-11T02:59:59.402Z,14.07
2023-01-11T03:02:29.410Z,14.37
2023-01-11T03:04:57.988Z,9.80
2023-01-11T03:07:51.801Z,18.27
2023-01-11T03:10:36.899Z,10.40
2023-01-11T03:13:21.815Z,7.93
2023-01-11T03:16:09.880Z,17.80
2023-01-11T03:18:53.132Z,13.77
2023-01-11T03:21:55.974Z,13.57
2023-01-11T03:24:38.954Z,13.07
2023-01-11T03:27:21.936Z,28.83
2023-01-11T03:29:57.027Z,9.27
2023-01-11T03:32:36.731Z,9.83
2023-01-11T03:35:26.541Z,12.20
2023-01-11T03:38:03.318Z,13.40
2023-01-11T03:40:39.233Z,19.83
2023-01-11T03:43:14.612Z,11.77
2023-01-11T03:45:53.805Z,9.23
2023-01-11T03:48:28.869Z,8.80
2023-01-11T03:51:01.326Z,18.90
2023-01-11T03:53:36.426Z,9.63
2023-01-11T03:56:11.928Z,14.30
2023-01-11T03:58:41.323Z,9.70
2023-01-11T04:01:10.048Z,9.90
2023-01-11T04:03:38.554Z,9.33
2023-01-11T04:06:12.444Z,12.73
2023-01-11T04:08:41.376Z,12.23
2023-01-11T04:11:09.974Z,16.83
2023-01-11T04:13:38.589Z,14.07
2023-01-11T04:16:08.231Z,15.00
2023-01-11T04:18:36.887Z,11.23
2023-01-11T04:21:06.093Z,11.47
2023-01-11T04:23:36.110Z,11.13
2023-01-11T04:26:04.830Z,10.60
2023-01-11T04:28:34.771Z,12.17
2023-01-11T04:31:03.393Z,10.57
2023-01-11T04:33:32.143Z,12.40
2023-01-11T04:36:00.696Z,18.30
2023-01-11T04:38:29.148Z,12.40
2023-01-11T04:41:12.979Z,15.17
2023-01-11T04:43:41.497Z,11.20
2023-01-11T04:46:11.037Z,14.83
2023-01-11T04:48:40.856Z,13.77
2023-01-11T04:51:10.410Z,19.73
2023-01-11T04:53:39.147Z,11.03
2023-01-11T04:56:09.860Z,13.90
2023-01-11T04:58:38.497Z,16.90
2023-01-11T05:01:11.042Z,17.10
2023-01-11T05:03:40.227Z,18.03
2023-01-11T05:06:09.671Z,13.10
2023-01-11T05:08:38.467Z,14.10
2023-01-11T05:11:09.733Z,17.40
2023-01-11T05:13:44.294Z,13.33
2023-01-11T05:16:17.626Z,14.20
2023-01-11T05:18:48.845Z,13.20
2023-01-11T05:21:20.131Z,13.43
2023-01-11T05:23:49.216Z,13.80
2023-01-11T05:26:23.003Z,18.30
2023-01-11T05:28:53.086Z,16.07
2023-01-11T05:31:22.216Z,16.17
2023-01-11T05:33:51.048Z,17.20
2023-01-11T05:36:22.191Z,20.20
2023-01-11T05:38:53.555Z,17.17
2023-01-11T05:41:26.377Z,22.23
2023-01-11T05:44:13.518Z,21.60
2023-01-11T05:46:44.123Z,18.60
2023-01-11T05:49:14.244Z,22.10
2023-01-11T05:51:44.353Z,18.20
2023-01-11T05:54:16.351Z,20.73
2023-01-11T05:56:46.377Z,26.70
2023-01-11T05:59:14.968Z,20.97
2023-01-11T06:01:44.108Z,18.17
2023-01-11T06:04:12.773Z,19.40
2023-01-11T06:06:42.114Z,23.30
2023-01-11T06:09:10.809Z,18.60
2023-01-11T06:11:39.311Z,20.87
2023-01-11T06:14:09.404Z,22.57
2023-01-11T06:16:38.374Z,27.33
2023-01-11T06:19:07.254Z,19.23
2023-01-11T06:21:36.030Z,19.37
2023-01-11T06:24:04.777Z,23.43
2023-01-11T06:26:33.458Z,23.20
2023-01-11T06:29:02.220Z,22.13
2023-01-11T06:31:33.160Z,21.93
2023-01-11T06:34:01.791Z,21.60
2023-01-11T06:36:30.551Z,21.63
2023-01-11T06:38:59.135Z,21.90
2023-01-11T06:41:28.692Z,28.93
2023-01-11T06:43:57.307Z,24.00
2023-01-11T06:46:28.923Z,27.03
2023-01-11T06:48:59.066Z,22.60
2023-01-11T06:51:27.588Z,20.57
2023-01-11T06:53:56.089Z,28.87
2023-01-11T06:56:24.685Z,24.60
2023-01-11T06:58:53.301Z,27.00
2023-01-11T07:01:22.149Z,26.20
2023-01-11T07:03:50.811Z,24.13
2023-01-11T07:06:20.883Z,22.90
2023-01-11T07:08:49.410Z,26.27
2023-01-11T07:11:18.009Z,24.57
2023-01-11T07:13:46.536Z,34.23
2023-01-11T07:16:15.154Z,23.67
2023-01-11T07:18:46.533Z,24.53
2023-01-11T07:21:15.337Z,28.27
2023-01-11T07:23:45.982Z,30.30
2023-01-11T07:26:14.841Z,26.50
2023-01-11T07:28:44.646Z,25.00
2023-01-11T07:31:13.199Z,25.10
2023-01-11T07:33:41.862Z,29.57
2023-01-11T07:36:11.010Z,28.87
2023-01-11T07:38:39.669Z,27.73
2023-01-11T07:41:23.489Z,27.20
2023-01-11T07:43:52.057Z,23.63
2023-01-11T07:46:20.850Z,31.13
2023-01-11T07:48:49.603Z,22.40
2023-01-11T07:51:22.211Z,25.70
2023-01-11T07:53:50.908Z,24.20
2023-01-11T07:56:22.917Z,23.37
2023-01-11T07:58:52.153Z,23.77
2023-01-11T08:01:23.053Z,23.90
2023-01-11T08:03:53.612Z,28.40
2023-01-11T08:06:22.288Z,30.30
2023-01-11T08:08:50.847Z,25.73
2023-01-11T08:11:38.360Z,23.17
2023-01-11T08:14:24.418Z,24.57
2023-01-11T08:16:53.086Z,25.43
2023-01-11T08:19:21.624Z,22.20
2023-01-11T08:21:51.702Z,27.00
2023-01-11T08:24:21.322Z,25.27
2023-01-11T08:26:51.212Z,25.40
2023-01-11T08:29:19.893Z,24.33
2023-01-11T08:31:49.716Z,24.53
2023-01-11T08:34:18.609Z,21.60
2023-01-11T08:36:47.314Z,24.00
2023-01-11T08:39:15.848Z,28.60
2023-01-11T08:41:45.451Z,24.63
2023-01-11T08:44:22.350Z,29.23
2023-01-11T08:47:01.649Z,19.60
2023-01-11T08:49:30.759Z,29.23
2023-01-11T08:51:59.511Z,23.47
2023-01-11T08:54:28.178Z,33.23
2023-01-11T08:56:57.222Z,23.33
2023-01-11T08:59:27.240Z,25.53
2023-01-11T09:01:56.507Z,21.80
2023-01-11T09:04:25.911Z,27.23
2023-01-11T09:06:55.215Z,22.80
2023-01-11T09:09:24.036Z,27.93
2023-01-11T09:11:56.578Z,21.00
2023-01-11T09:14:29.219Z,21.93
2023-01-11T09:16:58.395Z,18.63
2023-01-11T09:19:27.329Z,20.17
2023-01-11T09:22:00.852Z,21.13
2023-01-11T09:24:31.460Z,19.43
2023-01-11T09:27:01.443Z,20.40
2023-01-11T09:29:31.513Z,22.33
2023-01-11T09:32:00.482Z,17.20
2023-01-11T09:34:28.996Z,25.87
2023-01-11T09:37:00.675Z,19.60
2023-01-11T09:39:29.380Z,19.17
2023-01-11T09:42:32.193Z,17.43
2023-01-11T09:45:13.729Z,23.20
2023-01-11T09:47:51.093Z,18.33
2023-01-11T09:50:25.947Z,19.20
2023-01-11T09:53:00.279Z,19.23
2023-01-11T09:55:38.183Z,18.10
2023-01-11T09:58:35.010Z,17.73
2023-01-11T10:01:13.752Z,17.87
2023-01-11T10:04:36.774Z,14.63
2023-01-11T10:07:30.015Z,16.33
2023-01-11T10:18:28.852Z,15.30
2023-01-11T10:19:40.853Z,17.53
2023-01-11T10:22:18.838Z,18.53
2023-01-11T10:24:53.797Z,17.83
2023-01-11T10:27:35.678Z,14.40
2023-01-11T10:30:33.432Z,12.87
2023-01-11T10:33:24.920Z,13.40
2023-01-11T10:36:19.013Z,23.07
2023-01-11T10:39:11.924Z,14.13
2023-01-11T10:41:55.024Z,14.27
2023-01-11T10:44:34.383Z,16.00
2023-01-11T10:47:06.435Z,10.43
2023-01-11T10:49:46.478Z,13.33
2023-01-11T10:52:40.298Z,10.70
2023-01-11T10:55:14.262Z,10.77
2023-01-11T10:58:05.323Z,12.23
2023-01-11T11:00:44.635Z,10.73
2023-01-11T11:03:51.018Z,11.37
2023-01-11T11:06:36.949Z,11.60
2023-01-11T11:09:22.403Z,10.87
2023-01-11T11:11:59.670Z,16.03
2023-01-11T11:14:37.394Z,10.23
2023-01-11T11:17:21.844Z,10.70
2023-01-11T11:19:50.654Z,10.33
2023-01-11T11:22:22.038Z,9.10
2023-01-11T11:25:00.429Z,11.23
2023-01-11T11:27:39.209Z,9.83
2023-01-11T11:30:13.786Z,10.10
2023-01-11T11:32:53.515Z,9.50
2023-01-11T11:35:42.040Z,12.37
2023-01-11T11:38:24.639Z,12.13
2023-01-11T11:41:07.910Z,10.87
2023-01-11T11:43:38.676Z,12.80
2023-01-11T11:46:26.084Z,12.23
2023-01-11T11:49:13.956Z,12.93
2023-01-11T11:51:44.568Z,10.20
2023-01-11T11:54:25.208Z,9.77
2023-01-11T11:56:55.893Z,19.57
2023-01-11T11:59:29.327Z,13.13
2023-01-11T12:02:03.248Z,11.30
2023-01-11T12:04:48.737Z,9.73
2023-01-11T12:07:21.558Z,9.50
2023-01-11T12:09:59.649Z,10.53
2023-01-11T12:12:29.662Z,11.20
2023-01-11T12:15:23.174Z,12.93
2023-01-11T12:17:52.308Z,11.37
2023-01-11T12:20:35.287Z,10.20
2023-01-11T12:23:17.913Z,8.73
2023-01-11T12:26:19.857Z,10.83
2023-01-11T12:29:35.177Z,12.60
2023-01-11T12:32:42.818Z,16.40
2023-01-11T12:35:37.166Z,11.57
2023-01-11T12:38:32.673Z,10.87
2023-01-11T12:41:44.650Z,10.60
2023-01-11T12:44:35.511Z,12.10
2023-01-11T12:47:46.752Z,12.47
2023-01-11T12:50:24.942Z,11.30
2023-01-11T12:53:18.848Z,10.07
2023-01-11T12:56:06.366Z,10.90
2023-01-11T12:58:44.914Z,11.97
2023-01-11T13:01:41.790Z,10.53
2023-01-11T13:04:56.546Z,13.13
2023-01-11T13:07:47.140Z,12.47
2023-01-11T13:10:34.461Z,12.47
2023-01-11T13:13:14.940Z,14.60
2023-01-11T13:15:54.822Z,14.80
2023-01-11T13:18:41.431Z,11.60
2023-01-11T13:21:26.156Z,11.40
2023-01-11T13:23:59.914Z,10.53
2023-01-11T13:26:35.996Z,11.60
2023-01-11T13:29:12.437Z,13.20
2023-01-11T13:31:45.157Z,11.67
2023-01-11T13:34:24.792Z,15.67
2023-01-11T13:37:02.320Z,13.87
2023-01-11T13:39:43.322Z,17.50
2023-01-11T13:42:21.702Z,14.27
2023-01-11T13:44:59.180Z,14.20
2023-01-11T13:47:38.561Z,15.97
2023-01-11T13:50:18.048Z,14.23
2023-01-11T13:53:02.653Z,12.13
2023-01-11T13:55:44.464Z,14.90
2023-01-11T13:58:21.135Z,14.97
2023-01-11T14:00:59.156Z,14.40
2023-01-11T14:03:36.532Z,17.40
2023-01-11T14:06:28.123Z,17.40
2023-01-11T14:09:31.638Z,15.87
2023-01-11T14:12:11.486Z,20.03
2023-01-11T14:15:01.667Z,19.23
2023-01-11T14:17:53.861Z,15.53
2023-01-11T14:20:35.377Z,18.00
2023-01-11T14:23:13.515Z,16.23
2023-01-11T14:26:09.045Z,23.80
2023-01-11T14:29:04.426Z,16.47
2023-01-11T14:32:10.458Z,16.40
2023-01-11T14:35:07.834Z,15.73
2023-01-11T14:38:13.224Z,15.77
2023-01-11T14:41:37.691Z,15.40
2023-01-11T14:44:39.888Z,15.73
2023-01-11T14:47:33.211Z,19.90
2023-01-11T14:50:20.972Z,16.63
2023-01-11T14:52:54.604Z,20.67
2023-01-11T14:55:30.419Z,13.87
2023-01-11T14:58:18.306Z,16.80
2023-01-11T15:01:11.707Z,16.37
2023-01-11T15:03:50.467Z,15.97
2023-01-11T15:06:22.870Z,20.83
2023-01-11T15:08:56.223Z,15.50
2023-01-11T15:11:38.132Z,16.00
2023-01-11T15:14:24.705Z,19.07
2023-01-11T15:17:18.386Z,16.40
2023-01-11T15:19:49.057Z,17.30
2023-01-11T15:22:32.220Z,16.13
2023-01-11T15:25:04.724Z,16.27
2023-01-11T15:27:36.496Z,20.33
2023-01-11T15:30:08.497Z,22.50
2023-01-11T15:32:37.712Z,18.57
2023-01-11T15:35:33.646Z,21.53
2023-01-11T15:38:16.389Z,18.10
2023-01-11T15:40:47.521Z,20.57
2023-01-11T15:44:05.203Z,19.13
2023-01-11T15:47:22.163Z,21.90
2023-01-11T15:50:45.676Z,19.67
2023-01-11T15:54:05.721Z,22.40
2023-01-11T15:57:10.753Z,18.50
2023-01-11T16:00:33.553Z,19.93
2023-01-11T16:03:49.619Z,18.90
2023-01-11T16:06:32.950Z,24.73
2023-01-11T16:09:38.125Z,26.40
2023-01-11T16:12:50.654Z,22.67
2023-01-11T16:15:52.597Z,27.83
2023-01-11T16:18:26.816Z,20.40
2023-01-11T16:21:04.005Z,24.53
2023-01-11T16:23:34.492Z,34.37
2023-01-11T16:26:04.892Z,29.43
2023-01-11T16:28:35.140Z,30.50
2023-01-11T16:31:06.449Z,27.87
2023-01-11T16:33:36.146Z,28.30
2023-01-11T16:36:10.831Z,31.50
2023-01-11T16:38:55.461Z,27.73
2023-01-11T16:41:30.754Z,27.20
2023-01-11T16:44:07.261Z,29.97
2023-01-11T16:47:14.983Z,28.17
2023-01-11T16:49:49.127Z,31.03
2023-01-11T16:52:39.997Z,31.03
2023-01-11T16:55:29.572Z,29.53
2023-01-11T16:58:02.988Z,27.10
2023-01-11T17:00:39.815Z,29.30
2023-01-11T17:03:24.950Z,30.90
2023-01-11T17:06:22.265Z,30.40
2023-01-11T17:08:53.119Z,29.77
2023-01-11T17:11:35.677Z,29.53
2023-01-11T17:14:44.051Z,35.93
2023-01-11T17:17:15.179Z,29.23
2023-01-11T17:19:47.647Z,39.27
2023-01-11T17:22:22.888Z,36.27
2023-01-11T17:24:56.094Z,35.30
2023-01-11T17:27:30.514Z,33.30
2023-01-11T17:30:00.884Z,35.63
2023-01-11T17:32:38.665Z,32.40
2023-01-11T17:35:16.815Z,34.80
2023-01-11T17:37:47.192Z,32.00
2023-01-11T17:40:24.741Z,32.77
2023-01-11T17:43:15.337Z,32.10
2023-01-11T17:45:46.839Z,32.63
2023-01-11T17:48:18.607Z,34.30
2023-01-11T17:50:54.398Z,34.40
2023-01-11T17:53:27.597Z,35.07
2023-01-11T17:55:59.020Z,30.00
2023-01-11T17:58:29.860Z,28.23
2023-01-11T18:01:22.534Z,40.30
2023-01-11T18:03:57.004Z,33.27
2023-01-11T18:06:35.299Z,30.27
2023-01-11T18:09:09.202Z,31.13
2023-01-11T18:11:42.548Z,31.77
2023-01-11T18:14:21.815Z,31.13
2023-01-11T18:17:03.106Z,28.37
2023-01-11T18:19:43.071Z,36.60
2023-01-11T18:22:31.901Z,29.93
2023-01-11T18:25:18.467Z,34.87
2023-01-11T18:27:47.670Z,30.23
2023-01-11T18:30:38.589Z,28.93
2023-01-11T18:33:15.813Z,29.33
2023-01-11T18:35:48.783Z,27.57
2023-01-11T18:38:19.750Z,29.87
2023-01-11T18:40:51.507Z,30.03
2023-01-11T18:43:26.683Z,33.20
2023-01-11T18:45:55.422Z,32.33
2023-01-11T18:48:24.957Z,32.50
2023-01-11T18:50:55.483Z,34.70
2023-01-11T18:53:25.168Z,33.57
2023-01-11T18:55:54.007Z,35.13
2023-01-11T18:58:22.885Z,34.33
2023-01-11T19:00:51.685Z,34.50
2023-01-11T19:03:21.087Z,31.90
2023-01-11T19:05:49.804Z,33.33
2023-01-11T19:08:19.896Z,36.10
2023-01-11T19:10:50.461Z,31.60
2023-01-11T19:13:20.945Z,31.27
2023-01-11T19:15:49.875Z,29.53
2023-01-11T19:18:19.350Z,29.47
2023-01-11T19:20:48.037Z,31.80
2023-01-11T19:23:16.632Z,29.73
2023-01-11T19:25:46.681Z,26.13
2023-01-11T19:28:15.351Z,30.70
2023-01-11T19:30:44.189Z,32.63
2023-01-11T19:33:12.735Z,30.27
2023-01-11T19:35:41.962Z,35.43
2023-01-11T19:38:10.541Z,29.00
2023-01-11T19:40:39.316Z,32.10
2023-01-11T19:43:09.286Z,29.40
2023-01-11T19:45:38.139Z,32.37
2023-01-11T19:48:08.027Z,35.00
2023-01-11T19:50:36.701Z,32.37
2023-01-11T19:53:05.422Z,36.90
2023-01-11T19:55:34.308Z,36.97
2023-01-11T19:58:03.307Z,44.10
2023-01-11T20:00:33.468Z,49.63
2023-01-11T20:03:06.109Z,41.37
2023-01-11T20:05:34.891Z,39.17
2023-01-11T20:08:03.489Z,42.83
2023-01-11T20:10:32.039Z,40.47
2023-01-11T20:13:00.693Z,37.73
2023-01-11T20:15:29.338Z,37.13
2023-01-11T20:17:59.353Z,37.00
2023-01-11T20:20:28.045Z,38.60
2023-01-11T20:22:56.638Z,35.03
2023-01-11T20:25:25.299Z,41.13
2023-01-11T20:27:54.007Z,36.00
2023-01-11T20:30:22.602Z,37.00
2023-01-11T20:32:51.224Z,52.13
2023-01-11T20:35:21.272Z,49.50
2023-01-11T20:37:49.959Z,58.07
2023-01-11T20:40:18.874Z,50.43
2023-01-11T20:42:47.594Z,47.10
2023-01-11T20:45:16.403Z,34.50
2023-01-11T20:47:44.886Z,38.73
2023-01-11T20:50:13.584Z,40.70
2023-01-11T20:52:43.623Z,40.60
2023-01-11T20:55:12.238Z,38.03
2023-01-11T20:57:40.774Z,35.87
2023-01-11T21:00:14.909Z,37.53
2023-01-11T21:02:43.554Z,36.97
2023-01-11T21:05:12.249Z,38.63
2023-01-11T21:07:40.873Z,48.30
2023-01-11T21:10:12.643Z,48.87
2023-01-11T21:12:41.229Z,44.37
2023-01-11T21:15:11.072Z,47.27
2023-01-11T21:17:39.731Z,59.63
2023-01-11T21:20:10.071Z,73.10
2023-01-11T21:22:38.561Z,46.13
2023-01-11T21:25:10.382Z,61.00
2023-01-11T21:27:39.067Z,64.93
2023-01-11T21:30:09.397Z,41.67
2023-01-11T21:32:38.092Z,49.87
2023-01-11T21:35:07.525Z,45.40
2023-01-11T21:37:36.296Z,45.93
2023-01-11T21:40:05.829Z,49.60
2023-01-11T21:42:35.818Z,34.20
2023-01-11T21:45:05.326Z,30.47
2023-01-11T21:47:33.864Z,31.97
2023-01-11T21:50:02.506Z,31.60
2023-01-11T21:52:31.017Z,30.27
2023-01-11T21:54:59.604Z,35.77
2023-01-11T21:57:33.317Z,35.87
2023-01-11T22:00:03.564Z,36.33
2023-01-11T22:02:40.683Z,46.00
2023-01-11T22:05:10.725Z,53.90
2023-01-11T22:07:41.227Z,48.17
2023-01-11T22:10:12.375Z,35.00
2023-01-11T22:12:41.136Z,26.67
2023-01-11T22:15:12.281Z,31.00
2023-01-11T22:17:41.326Z,30.20
2023-01-11T22:20:12.274Z,37.43
2023-01-11T22:22:40.883Z,29.67
2023-01-11T22:25:10.028Z,26.67
2023-01-11T22:27:38.729Z,25.67
2023-01-11T22:30:10.770Z,28.90
2023-01-11T22:32:40.252Z,31.83
2023-01-11T22:35:10.469Z,29.43
2023-01-11T22:37:39.152Z,30.13
2023-01-11T22:40:09.887Z,27.73
2023-01-11T22:42:38.439Z,21.97
2023-01-11T22:45:08.961Z,25.47
2023-01-11T22:47:38.820Z,19.33
2023-01-11T22:50:08.738Z,22.83
2023-01-11T22:52:37.543Z,20.20
2023-01-11T22:55:07.614Z,22.50
2023-01-11T22:57:36.159Z,24.73
2023-01-11T23:00:06.403Z,22.50
2023-01-11T23:02:35.101Z,20.47
2023-01-11T23:05:05.676Z,24.13
2023-01-11T23:07:34.104Z,18.60
2023-01-11T23:10:03.546Z,17.30
2023-01-11T23:12:49.681Z,18.57
2023-01-11T23:15:18.460Z,17.50
2023-01-11T23:17:48.305Z,20.27
2023-01-11T23:20:18.717Z,16.90
2023-01-11T23:22:47.257Z,19.73
2023-01-11T23:25:15.949Z,19.57
2023-01-11T23:27:44.691Z,16.10
2023-01-11T23:30:14.479Z,13.93
2023-01-11T23:32:43.003Z,16.93
2023-01-11T23:35:11.708Z,17.37
2023-01-11T23:37:41.577Z,18.70
2023-01-11T23:40:12.021Z,19.53
2023-01-11T23:42:39.694Z,20.87
2023-01-11T23:45:09.912Z,20.60
2023-01-11T23:47:37.389Z,17.80
2023-01-11T23:50:07.087Z,18.23
2023-01-11T23:52:35.874Z,23.40
2023-01-11T23:55:06.951Z,20.70
2023-01-11T23:57:35.510Z,17.10
